7T31GM EGAC-EGCC
Flight info
| Callsign | 7T31GM |
|---|---|
| Flight time | 0h 43m |
| Altitude | 25000 |
| Route | DCT DUFFY L15 PEPOD Q38 MAKUX MAKUX1M |
| Aircraft | RJ70/M-SDFGIRWY/LB1 |
Departure
| Time | 2026-05-01 13:41 |
|---|---|
| Airport | George Best Belfast City Airport (EGAC) |
Arrival
| Time | 2026-05-01 14:24 |
|---|---|
| Airport | Manchester Airport (EGCC) |
| Time | Latitude | Longitude | Altitude | Speed | Heading |
|---|---|---|---|---|---|
| 2026-05-01 13:15 | 54.61630 | -5.87001 | 21 ft | 0 kts | 124° |
| 2026-05-01 13:29 | 54.61638 | -5.87022 | 23 ft | 2 kts | 120° |
| 2026-05-01 13:30 | 54.61637 | -5.87098 | 22 ft | 0 kts | 30° |
| 2026-05-01 13:35 | 54.61707 | -5.87013 | 21 ft | 11 kts | 35° |
| 2026-05-01 13:36 | 54.61760 | -5.86998 | 21 ft | 6 kts | 319° |
| 2026-05-01 13:36 | 54.61762 | -5.87000 | 21 ft | 0 kts | 315° |
| 2026-05-01 13:36 | 54.61764 | -5.87004 | 23 ft | 0 kts | 315° |
| 2026-05-01 13:37 | 54.61765 | -5.87006 | 22 ft | 0 kts | 315° |
| 2026-05-01 13:37 | 54.61767 | -5.87010 | 22 ft | 0 kts | 309° |
| 2026-05-01 13:37 | 54.61769 | -5.87014 | 22 ft | 0 kts | 308° |
| 2026-05-01 13:38 | 54.61837 | -5.87174 | 18 ft | 14 kts | 331° |
| 2026-05-01 13:38 | 54.61940 | -5.87099 | 17 ft | 21 kts | 36° |
| 2026-05-01 13:38 | 54.62081 | -5.86926 | 17 ft | 28 kts | 35° |
| 2026-05-01 13:39 | 54.62257 | -5.86717 | 20 ft | 33 kts | 34° |
| 2026-05-01 13:39 | 54.62409 | -5.86504 | 21 ft | 19 kts | 71° |
| 2026-05-01 13:39 | 54.62466 | -5.86445 | 19 ft | 9 kts | 298° |
| 2026-05-01 13:39 | 54.62457 | -5.86481 | 19 ft | 0 kts | 210° |
| 2026-05-01 13:40 | 54.62456 | -5.86481 | 19 ft | 0 kts | 214° |
| 2026-05-01 13:40 | 54.62453 | -5.86484 | 19 ft | 3 kts | 212° |
| 2026-05-01 13:40 | 54.62294 | -5.86673 | 20 ft | 63 kts | 215° |
| 2026-05-01 13:41 | 54.61750 | -5.87319 | 52 ft | 117 kts | 209° |
| 2026-05-01 13:41 | 54.61037 | -5.87997 | 549 ft | 119 kts | 195° |
| 2026-05-01 13:41 | 54.60207 | -5.87843 | 1120 ft | 127 kts | 152° |
| 2026-05-01 13:41 | 54.59612 | -5.86676 | 1671 ft | 130 kts | 130° |
| 2026-05-01 13:42 | 54.59130 | -5.85357 | 2121 ft | 134 kts | 126° |
| 2026-05-01 13:42 | 54.58709 | -5.83690 | 2186 ft | 165 kts | 124° |
| 2026-05-01 13:42 | 54.57807 | -5.82549 | 2472 ft | 168 kts | 159° |
| 2026-05-01 13:42 | 54.56636 | -5.81736 | 2552 ft | 195 kts | 161° |
| 2026-05-01 13:43 | 54.55318 | -5.80863 | 3008 ft | 206 kts | 161° |
| 2026-05-01 13:43 | 54.53977 | -5.79950 | 3705 ft | 208 kts | 160° |
| 2026-05-01 13:43 | 54.52636 | -5.78987 | 4396 ft | 210 kts | 159° |
| 2026-05-01 13:43 | 54.51291 | -5.77968 | 5072 ft | 211 kts | 158° |
| 2026-05-01 13:44 | 54.49955 | -5.76901 | 5760 ft | 212 kts | 157° |
| 2026-05-01 13:44 | 54.48626 | -5.75788 | 6512 ft | 212 kts | 157° |
| 2026-05-01 13:44 | 54.47306 | -5.74657 | 7231 ft | 213 kts | 156° |
| 2026-05-01 13:44 | 54.45977 | -5.73509 | 7962 ft | 215 kts | 156° |
| 2026-05-01 13:45 | 54.44643 | -5.72340 | 8682 ft | 217 kts | 156° |
| 2026-05-01 13:45 | 54.43240 | -5.71113 | 8910 ft | 230 kts | 156° |
| 2026-05-01 13:45 | 54.41944 | -5.69562 | 9488 ft | 235 kts | 140° |
| 2026-05-01 13:45 | 54.40758 | -5.67485 | 10065 ft | 252 kts | 138° |
| 2026-05-01 13:46 | 54.39526 | -5.65223 | 10596 ft | 267 kts | 137° |
| 2026-05-01 13:46 | 54.38239 | -5.62782 | 11009 ft | 284 kts | 136° |
| 2026-05-01 13:46 | 54.36883 | -5.60189 | 11363 ft | 299 kts | 136° |
| 2026-05-01 13:46 | 54.35466 | -5.57471 | 11694 ft | 311 kts | 136° |
| 2026-05-01 13:47 | 54.34013 | -5.54687 | 12206 ft | 315 kts | 136° |
| 2026-05-01 13:47 | 54.32537 | -5.51877 | 12746 ft | 318 kts | 136° |
| 2026-05-01 13:47 | 54.31041 | -5.49080 | 13289 ft | 320 kts | 136° |
| 2026-05-01 13:47 | 54.29527 | -5.46255 | 13821 ft | 323 kts | 136° |
| 2026-05-01 13:48 | 54.28000 | -5.43423 | 14289 ft | 325 kts | 136° |
| 2026-05-01 13:48 | 54.26461 | -5.40574 | 14739 ft | 327 kts | 136° |
| 2026-05-01 13:48 | 54.24911 | -5.37710 | 15180 ft | 329 kts | 136° |
| 2026-05-01 13:48 | 54.23351 | -5.34832 | 15616 ft | 331 kts | 136° |
| 2026-05-01 13:49 | 54.21779 | -5.31938 | 16039 ft | 333 kts | 136° |
| 2026-05-01 13:49 | 54.20194 | -5.29025 | 16491 ft | 335 kts | 136° |
| 2026-05-01 13:49 | 54.18611 | -5.26078 | 16910 ft | 338 kts | 136° |
| 2026-05-01 13:49 | 54.17013 | -5.23124 | 17331 ft | 340 kts | 136° |
| 2026-05-01 13:50 | 54.15397 | -5.20157 | 17747 ft | 342 kts | 136° |
| 2026-05-01 13:50 | 54.13784 | -5.17157 | 18157 ft | 345 kts | 136° |
| 2026-05-01 13:50 | 54.12143 | -5.14151 | 18551 ft | 347 kts | 136° |
| 2026-05-01 13:50 | 54.10494 | -5.11143 | 18926 ft | 348 kts | 136° |
| 2026-05-01 13:51 | 54.08843 | -5.08107 | 19300 ft | 350 kts | 136° |
| 2026-05-01 13:51 | 54.07179 | -5.05076 | 19668 ft | 351 kts | 137° |
| 2026-05-01 13:51 | 54.05506 | -5.02036 | 20035 ft | 353 kts | 137° |
| 2026-05-01 13:51 | 54.03825 | -4.98985 | 20396 ft | 354 kts | 137° |
| 2026-05-01 13:52 | 54.02135 | -4.95917 | 20751 ft | 356 kts | 137° |
| 2026-05-01 13:52 | 54.00438 | -4.92841 | 21106 ft | 357 kts | 137° |
| 2026-05-01 13:52 | 53.98738 | -4.89750 | 21455 ft | 359 kts | 137° |
| 2026-05-01 13:52 | 53.97055 | -4.86595 | 21788 ft | 362 kts | 134° |
| 2026-05-01 13:53 | 53.95511 | -4.83190 | 22128 ft | 365 kts | 130° |
| 2026-05-01 13:53 | 53.92560 | -4.76187 | 22796 ft | 369 kts | 130° |
| 2026-05-01 13:53 | 53.91063 | -4.72641 | 23124 ft | 370 kts | 130° |
| 2026-05-01 13:54 | 53.89534 | -4.69052 | 23458 ft | 372 kts | 130° |
| 2026-05-01 13:54 | 53.88021 | -4.65570 | 23766 ft | 373 kts | 131° |
| 2026-05-01 13:54 | 53.86471 | -4.62021 | 24022 ft | 375 kts | 131° |
| 2026-05-01 13:54 | 53.84914 | -4.58478 | 24277 ft | 376 kts | 131° |
| 2026-05-01 13:55 | 53.83343 | -4.54915 | 24521 ft | 378 kts | 131° |
| 2026-05-01 13:55 | 53.81761 | -4.51340 | 24743 ft | 381 kts | 131° |
| 2026-05-01 13:55 | 53.80182 | -4.47728 | 24969 ft | 381 kts | 130° |
| 2026-05-01 13:55 | 53.78604 | -4.44094 | 25096 ft | 385 kts | 130° |
| 2026-05-01 13:56 | 53.77026 | -4.40520 | 25127 ft | 375 kts | 131° |
| 2026-05-01 13:56 | 53.75464 | -4.36997 | 25143 ft | 376 kts | 131° |
| 2026-05-01 13:56 | 53.73893 | -4.33442 | 25145 ft | 378 kts | 130° |
| 2026-05-01 13:56 | 53.72331 | -4.29869 | 25147 ft | 378 kts | 130° |
| 2026-05-01 13:57 | 53.70752 | -4.26324 | 25154 ft | 378 kts | 131° |
| 2026-05-01 13:57 | 53.69701 | -4.23972 | 25158 ft | 379 kts | 131° |
| 2026-05-01 13:57 | 53.67599 | -4.19196 | 25151 ft | 379 kts | 130° |
| 2026-05-01 13:57 | 53.66015 | -4.15641 | 25151 ft | 379 kts | 131° |
| 2026-05-01 13:58 | 53.64426 | -4.12061 | 24878 ft | 385 kts | 129° |
| 2026-05-01 13:58 | 53.63045 | -4.08170 | 24334 ft | 388 kts | 121° |
| 2026-05-01 13:58 | 53.61897 | -4.04082 | 23747 ft | 385 kts | 118° |
| 2026-05-01 13:58 | 53.60856 | -3.99956 | 23041 ft | 382 kts | 117° |
| 2026-05-01 13:59 | 53.59873 | -3.95822 | 22345 ft | 379 kts | 116° |
| 2026-05-01 13:59 | 53.58897 | -3.91716 | 21672 ft | 376 kts | 116° |
| 2026-05-01 13:59 | 53.57920 | -3.87651 | 21013 ft | 373 kts | 116° |
| 2026-05-01 13:59 | 53.56946 | -3.83630 | 20364 ft | 370 kts | 116° |
| 2026-05-01 14:00 | 53.55975 | -3.79647 | 19714 ft | 367 kts | 116° |
| 2026-05-01 14:00 | 53.55007 | -3.75701 | 19095 ft | 364 kts | 116° |
| 2026-05-01 14:00 | 53.54053 | -3.71837 | 18503 ft | 361 kts | 116° |
| 2026-05-01 14:00 | 53.53074 | -3.67918 | 18266 ft | 358 kts | 117° |
| 2026-05-01 14:01 | 53.52113 | -3.64130 | 18182 ft | 356 kts | 116° |
| 2026-05-01 14:01 | 53.51150 | -3.60291 | 18118 ft | 358 kts | 116° |
| 2026-05-01 14:01 | 53.50186 | -3.56458 | 17434 ft | 354 kts | 116° |
| 2026-05-01 14:01 | 53.49230 | -3.52655 | 16737 ft | 351 kts | 116° |
| 2026-05-01 14:02 | 53.48286 | -3.48904 | 16067 ft | 347 kts | 116° |
| 2026-05-01 14:02 | 53.47352 | -3.45192 | 15406 ft | 343 kts | 116° |
| 2026-05-01 14:02 | 53.46425 | -3.41525 | 14751 ft | 340 kts | 116° |
| 2026-05-01 14:02 | 53.45506 | -3.37895 | 14107 ft | 336 kts | 116° |
| 2026-05-01 14:03 | 53.44595 | -3.34304 | 13409 ft | 333 kts | 116° |
| 2026-05-01 14:03 | 53.43685 | -3.30753 | 12720 ft | 330 kts | 117° |
| 2026-05-01 14:03 | 53.42772 | -3.27248 | 12033 ft | 327 kts | 117° |
| 2026-05-01 14:03 | 53.41902 | -3.23882 | 11366 ft | 292 kts | 117° |
| 2026-05-01 14:04 | 53.41126 | -3.20815 | 10692 ft | 289 kts | 117° |
| 2026-05-01 14:04 | 53.40601 | -3.18742 | 10242 ft | 295 kts | 118° |
| 2026-05-01 14:04 | 53.39789 | -3.15565 | 9559 ft | 292 kts | 116° |
| 2026-05-01 14:04 | 53.39511 | -3.12178 | 9279 ft | 299 kts | 86° |
| 2026-05-01 14:05 | 53.40279 | -3.08965 | 9197 ft | 297 kts | 63° |
| 2026-05-01 14:05 | 53.41403 | -3.06048 | 9166 ft | 299 kts | 61° |
| 2026-05-01 14:05 | 53.42541 | -3.03120 | 9167 ft | 299 kts | 61° |
| 2026-05-01 14:05 | 53.43678 | -3.00202 | 9168 ft | 300 kts | 62° |
| 2026-05-01 14:06 | 53.44800 | -2.97254 | 9164 ft | 298 kts | 62° |
| 2026-05-01 14:06 | 53.45892 | -2.94297 | 9105 ft | 300 kts | 63° |
| 2026-05-01 14:06 | 53.46964 | -2.91310 | 8851 ft | 297 kts | 64° |
| 2026-05-01 14:06 | 53.48015 | -2.88319 | 8595 ft | 297 kts | 64° |
| 2026-05-01 14:07 | 53.49057 | -2.85334 | 8343 ft | 296 kts | 64° |
| 2026-05-01 14:07 | 53.50088 | -2.82350 | 8105 ft | 294 kts | 65° |
| 2026-05-01 14:07 | 53.51106 | -2.79381 | 7889 ft | 293 kts | 65° |
| 2026-05-01 14:08 | 53.53039 | -2.73625 | 7212 ft | 294 kts | 70° |
| 2026-05-01 14:08 | 53.53378 | -2.70362 | 6875 ft | 280 kts | 102° |
| 2026-05-01 14:08 | 53.52691 | -2.67403 | 6638 ft | 269 kts | 127° |
| 2026-05-01 14:08 | 53.51634 | -2.64829 | 6316 ft | 267 kts | 129° |
| 2026-05-01 14:09 | 53.50570 | -2.62302 | 5969 ft | 266 kts | 129° |
| 2026-05-01 14:09 | 53.49483 | -2.59781 | 5600 ft | 265 kts | 130° |
| 2026-05-01 14:09 | 53.48409 | -2.57299 | 5353 ft | 262 kts | 129° |
| 2026-05-01 14:09 | 53.47353 | -2.54822 | 5170 ft | 260 kts | 129° |
| 2026-05-01 14:10 | 53.46317 | -2.52340 | 4972 ft | 260 kts | 128° |
| 2026-05-01 14:10 | 53.45291 | -2.49850 | 4767 ft | 260 kts | 128° |
| 2026-05-01 14:10 | 53.44263 | -2.47352 | 4602 ft | 260 kts | 128° |
| 2026-05-01 14:10 | 53.43245 | -2.44844 | 4402 ft | 260 kts | 127° |
| 2026-05-01 14:11 | 53.42229 | -2.42338 | 4240 ft | 260 kts | 127° |
| 2026-05-01 14:11 | 53.40205 | -2.37330 | 3931 ft | 260 kts | 126° |
| 2026-05-01 14:11 | 53.39196 | -2.34811 | 3771 ft | 260 kts | 126° |
| 2026-05-01 14:12 | 53.38188 | -2.32301 | 3615 ft | 259 kts | 126° |
| 2026-05-01 14:12 | 53.37183 | -2.29820 | 3539 ft | 255 kts | 126° |
| 2026-05-01 14:12 | 53.36317 | -2.27273 | 3493 ft | 251 kts | 109° |
| 2026-05-01 14:12 | 53.36345 | -2.24400 | 3509 ft | 251 kts | 72° |
| 2026-05-01 14:13 | 53.37285 | -2.21974 | 3512 ft | 248 kts | 51° |
| 2026-05-01 14:13 | 53.38420 | -2.19818 | 3498 ft | 244 kts | 50° |
| 2026-05-01 14:13 | 53.39537 | -2.17749 | 3495 ft | 241 kts | 49° |
| 2026-05-01 14:13 | 53.40661 | -2.15691 | 3491 ft | 238 kts | 49° |
| 2026-05-01 14:14 | 53.41766 | -2.13647 | 3535 ft | 236 kts | 50° |
| 2026-05-01 14:14 | 53.42844 | -2.11582 | 3567 ft | 235 kts | 51° |
| 2026-05-01 14:14 | 53.43918 | -2.09512 | 3525 ft | 235 kts | 51° |
| 2026-05-01 14:14 | 53.44977 | -2.07444 | 3489 ft | 232 kts | 51° |
| 2026-05-01 14:15 | 53.45998 | -2.05414 | 3545 ft | 221 kts | 51° |
| 2026-05-01 14:15 | 53.46942 | -2.03538 | 3584 ft | 200 kts | 52° |
| 2026-05-01 14:15 | 53.47803 | -2.01800 | 3612 ft | 187 kts | 52° |
| 2026-05-01 14:15 | 53.48719 | -2.00328 | 3589 ft | 183 kts | 26° |
| 2026-05-01 14:16 | 53.49949 | -1.99825 | 3575 ft | 183 kts | 8° |
| 2026-05-01 14:16 | 53.51215 | -1.99543 | 3566 ft | 184 kts | 8° |
| 2026-05-01 14:16 | 53.52478 | -1.99228 | 3569 ft | 183 kts | 12° |
| 2026-05-01 14:16 | 53.53519 | -1.98132 | 3552 ft | 178 kts | 50° |
| 2026-05-01 14:17 | 53.54358 | -1.96599 | 3559 ft | 179 kts | 51° |
| 2026-05-01 14:17 | 53.55151 | -1.94988 | 3565 ft | 177 kts | 66° |
| 2026-05-01 14:17 | 53.55225 | -1.93050 | 3530 ft | 165 kts | 118° |
| 2026-05-01 14:17 | 53.54432 | -1.91847 | 3525 ft | 155 kts | 169° |
| 2026-05-01 14:18 | 53.53370 | -1.91924 | 3514 ft | 155 kts | 195° |
| 2026-05-01 14:18 | 53.52501 | -1.93007 | 3543 ft | 159 kts | 222° |
| 2026-05-01 14:18 | 53.51721 | -1.94303 | 3540 ft | 158 kts | 221° |
| 2026-05-01 14:18 | 53.51198 | -1.95166 | 3548 ft | 160 kts | 222° |
| 2026-05-01 14:19 | 53.50194 | -1.96970 | 3537 ft | 159 kts | 226° |
| 2026-05-01 14:19 | 53.49463 | -1.98377 | 3550 ft | 160 kts | 227° |
| 2026-05-01 14:19 | 53.48749 | -1.99808 | 3541 ft | 160 kts | 228° |
| 2026-05-01 14:19 | 53.48045 | -2.01257 | 3578 ft | 162 kts | 229° |
| 2026-05-01 14:20 | 53.47331 | -2.02728 | 3592 ft | 162 kts | 228° |
| 2026-05-01 14:20 | 53.45912 | -2.05705 | 3329 ft | 166 kts | 229° |
| 2026-05-01 14:20 | 53.45182 | -2.07232 | 3123 ft | 168 kts | 228° |
| 2026-05-01 14:21 | 53.44441 | -2.08771 | 2870 ft | 171 kts | 228° |
| 2026-05-01 14:21 | 53.43695 | -2.10325 | 2656 ft | 172 kts | 229° |
| 2026-05-01 14:21 | 53.42939 | -2.11885 | 2436 ft | 173 kts | 230° |
| 2026-05-01 14:22 | 53.41428 | -2.15001 | 1957 ft | 167 kts | 230° |
| 2026-05-01 14:22 | 53.40717 | -2.16481 | 1726 ft | 159 kts | 229° |
| 2026-05-01 14:22 | 53.40030 | -2.17899 | 1503 ft | 155 kts | 229° |
| 2026-05-01 14:22 | 53.39343 | -2.19320 | 1296 ft | 158 kts | 231° |
| 2026-05-01 14:23 | 53.38644 | -2.20739 | 1094 ft | 156 kts | 230° |
| 2026-05-01 14:23 | 53.37971 | -2.22125 | 877 ft | 146 kts | 231° |
| 2026-05-01 14:23 | 53.37373 | -2.23356 | 690 ft | 127 kts | 233° |
| 2026-05-01 14:23 | 53.36846 | -2.24446 | 514 ft | 117 kts | 232° |
| 2026-05-01 14:24 | 53.36333 | -2.25497 | 335 ft | 116 kts | 234° |
| 2026-05-01 14:24 | 53.35843 | -2.26524 | 266 ft | 103 kts | 232° |
| 2026-05-01 14:24 | 53.35491 | -2.27254 | 255 ft | 68 kts | 231° |
| 2026-05-01 14:24 | 53.35292 | -2.27700 | 245 ft | 35 kts | 245° |
| 2026-05-01 14:25 | 53.35246 | -2.27975 | 239 ft | 15 kts | 261° |
| 2026-05-01 14:25 | 53.35230 | -2.28152 | 239 ft | 14 kts | 265° |
| 2026-05-01 14:25 | 53.35270 | -2.28239 | 236 ft | 9 kts | 6° |
| 2026-05-01 14:25 | 53.35317 | -2.28203 | 237 ft | 6 kts | 26° |
| 2026-05-01 14:26 | 53.35347 | -2.28181 | 239 ft | 4 kts | 17° |
| 2026-05-01 14:26 | 53.35391 | -2.28169 | 240 ft | 1 kts | 9° |
| 2026-05-01 14:26 | 53.35406 | -2.28165 | 240 ft | 5 kts | 9° |
| 2026-05-01 14:27 | 53.35447 | -2.28154 | 241 ft | 6 kts | 9° |
| 2026-05-01 14:27 | 53.35493 | -2.28126 | 243 ft | 10 kts | 31° |
| 2026-05-01 14:27 | 53.35551 | -2.28053 | 245 ft | 9 kts | 46° |
| 2026-05-01 14:28 | 53.35606 | -2.27937 | 248 ft | 3 kts | 51° |
| 2026-05-01 14:28 | 53.35615 | -2.27920 | 249 ft | 0 kts | 51° |
| 2026-05-01 14:28 | 53.35620 | -2.27910 | 249 ft | 1 kts | 51° |
| 2026-05-01 14:28 | 53.35624 | -2.27901 | 249 ft | 0 kts | 51° |
| 2026-05-01 14:30 | 53.35714 | -2.27881 | 252 ft | 11 kts | 6° |
| 2026-05-01 14:30 | 53.35796 | -2.27868 | 255 ft | 13 kts | 5° |
| 2026-05-01 14:30 | 53.35894 | -2.27852 | 255 ft | 15 kts | 6° |
| 2026-05-01 14:31 | 53.36064 | -2.27819 | 255 ft | 4 kts | 4° |
| 2026-05-01 14:31 | 53.36090 | -2.27810 | 255 ft | 4 kts | 46° |
| 2026-05-01 14:31 | 53.36088 | -2.27753 | 255 ft | 3 kts | 101° |
| 2026-05-01 14:31 | 53.36096 | -2.27731 | 255 ft | 3 kts | 16° |
| 2026-05-01 14:32 | 53.36126 | -2.27717 | 255 ft | 5 kts | 16° |
| 2026-05-01 14:32 | 53.36159 | -2.27701 | 255 ft | 3 kts | 17° |
| 2026-05-01 14:32 | 53.36164 | -2.27699 | 255 ft | 0 kts | 17° |